createdAt,value
2023-05-15T00:00:08.810Z,24.60
2023-05-15T00:01:08.843Z,24.57
2023-05-15T00:02:08.898Z,24.56
2023-05-15T00:03:08.977Z,24.57
2023-05-15T00:04:08.926Z,24.56
2023-05-15T00:05:09.051Z,24.57
2023-05-15T00:06:09.006Z,24.60
2023-05-15T00:07:09.040Z,24.56
2023-05-15T00:08:09.070Z,24.56
2023-05-15T00:09:09.113Z,24.58
2023-05-15T00:10:09.146Z,24.58
2023-05-15T00:11:09.209Z,24.54
2023-05-15T00:12:09.190Z,24.58
2023-05-15T00:13:09.222Z,24.58
2023-05-15T00:14:09.250Z,24.57
2023-05-15T00:15:09.294Z,24.56
2023-05-15T00:16:09.546Z,24.56
2023-05-15T00:17:09.352Z,24.58
2023-05-15T00:18:09.410Z,24.56
2023-05-15T00:19:09.479Z,24.57
2023-05-15T00:20:09.452Z,24.56
2023-05-15T00:21:09.480Z,24.57
2023-05-15T00:22:09.527Z,24.56
2023-05-15T00:23:09.560Z,24.56
2023-05-15T00:24:09.582Z,24.57
2023-05-15T00:25:09.608Z,24.54
2023-05-15T00:26:09.673Z,24.56
2023-05-15T00:27:09.697Z,24.57
2023-05-15T00:28:09.745Z,24.56
2023-05-15T00:29:09.752Z,24.56
2023-05-15T00:30:09.784Z,24.54
2023-05-15T00:31:09.883Z,24.56
2023-05-15T00:32:09.861Z,24.56
2023-05-15T00:33:09.866Z,24.56
2023-05-15T00:34:09.910Z,24.56
2023-05-15T00:35:09.934Z,24.54
2023-05-15T00:36:09.966Z,24.54
2023-05-15T00:37:10.000Z,24.54
2023-05-15T00:38:10.024Z,24.54
2023-05-15T00:39:10.042Z,24.54
2023-05-15T00:40:10.085Z,24.56
2023-05-15T00:41:10.119Z,24.53
2023-05-15T00:42:10.290Z,24.56
2023-05-15T00:43:10.182Z,24.53
2023-05-15T00:44:10.223Z,24.53
2023-05-15T00:45:10.260Z,24.53
2023-05-15T00:46:10.301Z,24.56
2023-05-15T00:47:10.434Z,24.53
2023-05-15T00:48:10.352Z,24.53
2023-05-15T00:49:10.400Z,24.53
2023-05-15T00:50:10.432Z,24.54
2023-05-15T00:51:10.451Z,24.51
2023-05-15T00:52:10.481Z,24.53
2023-05-15T00:53:10.547Z,24.53
2023-05-15T00:54:10.600Z,24.53
2023-05-15T00:55:10.587Z,24.54
2023-05-15T00:56:10.635Z,24.51
2023-05-15T00:57:10.657Z,24.54
2023-05-15T00:58:10.693Z,24.57
2023-05-15T00:59:10.732Z,24.51
2023-05-15T01:00:10.780Z,24.53
2023-05-15T01:01:10.883Z,24.51
2023-05-15T01:02:10.893Z,24.53
2023-05-15T01:03:10.989Z,24.53
2023-05-15T01:04:10.913Z,24.53
2023-05-15T01:05:10.986Z,24.53
2023-05-15T01:06:11.005Z,24.53
2023-05-15T01:07:11.047Z,24.53
2023-05-15T01:08:11.075Z,24.51
2023-05-15T01:09:11.121Z,24.53
2023-05-15T01:10:11.167Z,24.54
2023-05-15T01:11:11.544Z,24.51
2023-05-15T01:12:11.252Z,24.53
2023-05-15T01:13:11.276Z,24.53
2023-05-15T01:14:11.315Z,24.53
2023-05-15T01:15:11.336Z,24.51
2023-05-15T01:16:11.552Z,24.53
2023-05-15T01:17:11.420Z,24.48
2023-05-15T01:18:11.505Z,24.53
2023-05-15T01:19:11.524Z,24.51
2023-05-15T01:20:11.519Z,24.53
2023-05-15T01:21:11.558Z,24.50
2023-05-15T01:22:11.583Z,24.51
2023-05-15T01:23:11.645Z,24.51
2023-05-15T01:24:11.674Z,24.50
2023-05-15T01:25:11.708Z,24.50
2023-05-15T01:26:11.765Z,24.50
2023-05-15T01:27:11.782Z,24.53
2023-05-15T01:28:11.833Z,24.51
2023-05-15T01:29:11.896Z,24.51
2023-05-15T01:30:11.931Z,24.51
2023-05-15T01:31:11.952Z,24.50
2023-05-15T01:32:12.094Z,24.51
2023-05-15T01:33:12.066Z,24.53
2023-05-15T01:34:12.057Z,24.53
2023-05-15T01:35:12.085Z,24.50
2023-05-15T01:36:12.126Z,24.50
2023-05-15T01:37:12.161Z,24.51
2023-05-15T01:38:12.217Z,24.50
2023-05-15T01:39:12.237Z,24.50
2023-05-15T01:40:12.267Z,24.48
2023-05-15T01:41:12.310Z,24.47
2023-05-15T01:42:12.349Z,24.51
2023-05-15T01:43:12.394Z,24.50
2023-05-15T01:44:12.433Z,24.47
2023-05-15T01:45:12.467Z,24.51
2023-05-15T01:46:12.536Z,24.48
2023-05-15T01:47:12.551Z,24.50
2023-05-15T01:48:12.558Z,24.50
2023-05-15T01:49:12.597Z,24.48
2023-05-15T01:50:12.658Z,24.51
2023-05-15T01:51:12.680Z,24.51
2023-05-15T01:52:12.741Z,24.48
2023-05-15T01:53:12.755Z,24.50
2023-05-15T01:54:12.792Z,24.50
2023-05-15T01:55:12.839Z,24.50
2023-05-15T01:56:12.890Z,24.48
2023-05-15T01:57:12.930Z,24.48
2023-05-15T01:58:12.980Z,24.48
2023-05-15T01:59:13.023Z,24.47
2023-05-15T02:00:13.065Z,24.47
2023-05-15T02:01:13.176Z,24.50
2023-05-15T02:02:13.148Z,24.50
2023-05-15T02:03:13.292Z,24.47
2023-05-15T02:04:13.217Z,24.48
2023-05-15T02:05:13.255Z,24.51
2023-05-15T02:06:13.299Z,24.47
2023-05-15T02:07:13.349Z,24.48
2023-05-15T02:08:13.382Z,24.47
2023-05-15T02:09:13.421Z,24.47
2023-05-15T02:10:13.466Z,24.48
2023-05-15T02:11:13.518Z,24.44
2023-05-15T02:12:13.551Z,24.50
2023-05-15T02:13:13.598Z,24.47
2023-05-15T02:14:13.636Z,24.46
2023-05-15T02:15:13.683Z,24.46
2023-05-15T02:16:13.757Z,24.46
2023-05-15T02:17:13.776Z,24.48
2023-05-15T02:18:13.794Z,24.47
2023-05-15T02:19:13.886Z,24.48
2023-05-15T02:20:13.869Z,24.48
2023-05-15T02:21:13.914Z,24.46
2023-05-15T02:22:13.959Z,24.47
2023-05-15T02:23:13.994Z,24.48
2023-05-15T02:24:14.029Z,24.48
2023-05-15T02:25:14.073Z,24.47
2023-05-15T02:26:14.116Z,24.47
2023-05-15T02:27:14.152Z,24.46
2023-05-15T02:28:14.196Z,24.47
2023-05-15T02:29:14.244Z,24.46
2023-05-15T02:30:14.281Z,24.48
2023-05-15T02:31:14.384Z,24.47
2023-05-15T02:32:14.537Z,24.48
2023-05-15T02:33:14.403Z,24.46
2023-05-15T02:34:14.450Z,24.44
2023-05-15T02:35:14.499Z,24.44
2023-05-15T02:36:14.568Z,24.47
2023-05-15T02:37:14.602Z,24.47
2023-05-15T02:38:14.626Z,24.47
2023-05-15T02:39:14.658Z,24.44
2023-05-15T02:40:14.715Z,24.48
2023-05-15T02:41:14.755Z,24.44
2023-05-15T02:42:14.791Z,24.48
2023-05-15T02:43:14.817Z,24.47
2023-05-15T02:44:14.860Z,24.44
2023-05-15T02:45:14.898Z,24.43
2023-05-15T02:46:15.002Z,24.44
2023-05-15T02:47:14.996Z,24.46
2023-05-15T02:48:15.037Z,24.44
2023-05-15T02:49:15.086Z,24.46
2023-05-15T02:50:15.143Z,24.44
2023-05-15T02:51:15.171Z,24.46
2023-05-15T02:52:15.219Z,24.46
2023-05-15T02:53:15.242Z,24.44
2023-05-15T02:54:15.334Z,24.44
2023-05-15T02:55:15.325Z,24.44
2023-05-15T02:56:15.374Z,24.46
2023-05-15T02:57:15.421Z,24.44
2023-05-15T02:58:15.470Z,24.43
2023-05-15T02:59:15.475Z,24.43
2023-05-15T03:00:15.523Z,24.47
2023-05-15T03:01:15.638Z,24.41
2023-05-15T03:02:15.605Z,24.43
2023-05-15T03:03:15.672Z,24.43
2023-05-15T03:04:15.765Z,24.44
2023-05-15T03:05:15.735Z,24.43
2023-05-15T03:06:15.775Z,24.44
2023-05-15T03:07:15.813Z,24.46
2023-05-15T03:08:15.851Z,24.44
2023-05-15T03:09:15.915Z,24.43
2023-05-15T03:10:15.960Z,24.44
2023-05-15T03:11:15.992Z,24.43
2023-05-15T03:12:16.016Z,24.44
2023-05-15T03:13:16.070Z,24.44
2023-05-15T03:14:16.089Z,24.44
2023-05-15T03:15:16.132Z,24.41
2023-05-15T03:16:16.185Z,24.43
2023-05-15T03:17:16.486Z,24.43
2023-05-15T03:18:18.591Z,24.43
2023-05-15T03:19:16.446Z,24.43
2023-05-15T03:20:16.454Z,24.43
2023-05-15T03:21:16.494Z,24.41
2023-05-15T03:22:16.572Z,24.43
2023-05-15T03:23:16.580Z,24.41
2023-05-15T03:24:16.608Z,24.41
2023-05-15T03:25:16.659Z,24.43
2023-05-15T03:26:16.714Z,24.41
2023-05-15T03:27:16.753Z,24.44
2023-05-15T03:28:16.783Z,24.43
2023-05-15T03:29:16.827Z,24.41
2023-05-15T03:30:16.875Z,24.43
2023-05-15T03:31:16.989Z,24.43
2023-05-15T03:32:16.980Z,24.41
2023-05-15T03:33:17.010Z,24.44
2023-05-15T03:34:17.055Z,24.43
2023-05-15T03:35:17.115Z,24.41
2023-05-15T03:36:17.182Z,24.43
2023-05-15T03:37:17.207Z,24.43
2023-05-15T03:38:17.293Z,24.41
2023-05-15T03:39:17.281Z,24.41
2023-05-15T03:40:17.326Z,24.44
2023-05-15T03:41:17.370Z,24.38
2023-05-15T03:42:17.434Z,24.41
2023-05-15T03:43:17.459Z,24.43
2023-05-15T03:44:17.505Z,24.43
2023-05-15T03:45:17.558Z,24.41
2023-05-15T03:46:17.615Z,24.41
2023-05-15T03:47:17.644Z,24.41
2023-05-15T03:48:17.696Z,24.41
2023-05-15T03:49:17.735Z,24.41
2023-05-15T03:50:17.791Z,24.41
2023-05-15T03:51:17.841Z,24.41
2023-05-15T03:52:17.910Z,24.41
2023-05-15T03:53:17.941Z,24.38
2023-05-15T03:54:17.993Z,24.41
2023-05-15T03:55:18.027Z,24.38
2023-05-15T03:56:18.089Z,24.41
2023-05-15T03:57:18.136Z,24.40
2023-05-15T03:58:18.177Z,24.40
2023-05-15T03:59:18.233Z,24.37
2023-05-15T04:00:19.181Z,24.38
2023-05-15T04:01:18.348Z,24.40
2023-05-15T04:02:18.412Z,24.38
2023-05-15T04:03:18.461Z,24.40
2023-05-15T04:04:18.464Z,24.38
2023-05-15T04:05:18.542Z,24.41
2023-05-15T04:06:18.549Z,24.41
2023-05-15T04:07:18.597Z,24.38
2023-05-15T04:08:18.657Z,24.38
2023-05-15T04:09:18.704Z,24.41
2023-05-15T04:10:18.732Z,24.38
2023-05-15T04:11:18.784Z,24.38
2023-05-15T04:12:18.820Z,24.38
2023-05-15T04:13:18.874Z,24.40
2023-05-15T04:14:18.934Z,24.38
2023-05-15T04:15:18.953Z,24.38
2023-05-15T04:16:19.031Z,24.38
2023-05-15T04:17:19.078Z,24.38
2023-05-15T04:18:19.094Z,24.37
2023-05-15T04:19:19.322Z,24.40
2023-05-15T04:20:19.197Z,24.38
2023-05-15T04:21:19.234Z,24.38
2023-05-15T04:22:19.271Z,24.38
2023-05-15T04:23:19.322Z,24.38
2023-05-15T04:24:19.397Z,24.38
2023-05-15T04:25:19.422Z,24.37
2023-05-15T04:26:19.551Z,24.37
2023-05-15T04:27:19.518Z,24.40
2023-05-15T04:28:19.560Z,24.37
2023-05-15T04:29:19.608Z,24.37
2023-05-15T04:30:19.661Z,24.38
2023-05-15T04:31:19.719Z,24.38
2023-05-15T04:32:19.759Z,24.38
2023-05-15T04:33:19.797Z,24.37
2023-05-15T04:34:19.839Z,24.38
2023-05-15T04:35:19.904Z,24.38
2023-05-15T04:36:19.944Z,24.36
2023-05-15T04:37:19.994Z,24.37
2023-05-15T04:38:20.049Z,24.37
2023-05-15T04:39:20.071Z,24.37
2023-05-15T04:40:20.110Z,24.38
2023-05-15T04:41:20.157Z,24.40
2023-05-15T04:42:20.254Z,24.40
2023-05-15T04:43:20.245Z,24.36
2023-05-15T04:44:20.282Z,24.36
2023-05-15T04:45:20.326Z,24.38
2023-05-15T04:46:20.406Z,24.37
2023-05-15T04:47:20.446Z,24.40
2023-05-15T04:48:20.464Z,24.38
2023-05-15T04:49:20.502Z,24.38
2023-05-15T04:50:20.558Z,24.38
2023-05-15T04:51:20.604Z,24.38
2023-05-15T04:52:20.647Z,24.40
2023-05-15T04:53:20.700Z,24.40
2023-05-15T04:54:20.725Z,24.38
2023-05-15T04:55:20.782Z,24.38
2023-05-15T04:56:20.824Z,24.40
2023-05-15T04:57:20.918Z,24.38
2023-05-15T04:58:20.922Z,24.38
2023-05-15T04:59:20.955Z,24.38
2023-05-15T05:00:21.001Z,24.41
2023-05-15T05:01:21.044Z,24.40
2023-05-15T05:02:21.149Z,24.40
2023-05-15T05:03:21.155Z,24.40
2023-05-15T05:04:21.171Z,24.38
2023-05-15T05:05:21.209Z,24.41
2023-05-15T05:06:21.250Z,24.40
2023-05-15T05:07:21.309Z,24.40
2023-05-15T05:08:21.342Z,24.40
2023-05-15T05:09:21.401Z,24.38
2023-05-15T05:10:21.470Z,24.38
2023-05-15T05:11:21.549Z,24.40
2023-05-15T05:12:21.553Z,24.40
2023-05-15T05:13:21.600Z,24.38
2023-05-15T05:14:21.681Z,24.38
2023-05-15T05:15:21.737Z,24.41
2023-05-15T05:16:21.803Z,24.38
2023-05-15T05:17:21.889Z,24.37
2023-05-15T05:18:21.873Z,24.40
2023-05-15T05:19:21.922Z,24.40
2023-05-15T05:20:21.994Z,24.40
2023-05-15T05:21:22.040Z,24.38
2023-05-15T05:22:22.092Z,24.40
2023-05-15T05:23:22.152Z,24.38
2023-05-15T05:24:22.190Z,24.40
2023-05-15T05:25:22.312Z,24.38
2023-05-15T05:26:22.327Z,24.38
2023-05-15T05:27:22.685Z,24.38
2023-05-15T05:28:22.457Z,24.37
2023-05-15T05:29:22.501Z,24.37
2023-05-15T05:30:22.554Z,24.40
2023-05-15T05:31:22.671Z,24.38
2023-05-15T05:32:22.693Z,24.38
2023-05-15T05:33:22.674Z,24.38
2023-05-15T05:34:22.720Z,24.40
2023-05-15T05:35:23.037Z,24.41
2023-05-15T05:36:22.824Z,24.43
2023-05-15T05:37:23.167Z,24.46
2023-05-15T05:38:22.916Z,24.50
2023-05-15T05:39:22.933Z,24.53
2023-05-15T05:40:22.967Z,24.56
2023-05-15T05:41:23.052Z,24.58
2023-05-15T05:42:23.053Z,24.61
2023-05-15T05:43:23.040Z,24.63
2023-05-15T05:44:23.074Z,24.63
2023-05-15T05:46:23.147Z,24.70
2023-05-15T05:47:23.159Z,24.72
2023-05-15T05:48:23.150Z,24.77
2023-05-15T05:49:23.180Z,24.75
2023-05-15T05:50:23.203Z,24.74
2023-05-15T05:51:23.210Z,24.78
2023-05-15T05:52:23.333Z,24.78
2023-05-15T05:53:23.259Z,24.78
2023-05-15T05:54:23.280Z,24.78
2023-05-15T05:55:23.421Z,24.82
2023-05-15T05:56:23.300Z,24.82
2023-05-15T05:57:23.364Z,24.84
2023-05-15T05:58:26.058Z,24.84
2023-05-15T05:59:23.324Z,24.84
2023-05-15T06:00:23.309Z,24.87
2023-05-15T06:01:23.324Z,24.87
2023-05-15T06:02:23.336Z,24.88
2023-05-15T06:03:23.371Z,24.90
2023-05-15T06:04:23.347Z,24.88
2023-05-15T06:05:23.409Z,24.91
2023-05-15T06:06:23.294Z,24.91
2023-05-15T06:07:23.285Z,24.94
2023-05-15T06:08:23.265Z,24.95
2023-05-15T06:09:23.258Z,24.94
2023-05-15T06:10:23.384Z,24.94
2023-05-15T06:11:25.162Z,24.95
2023-05-15T06:12:23.274Z,24.97
2023-05-15T06:13:23.235Z,24.98
2023-05-15T06:14:23.227Z,25.05
2023-05-15T06:15:23.351Z,25.02
2023-05-15T06:16:23.240Z,25.02
2023-05-15T06:17:23.251Z,25.05
2023-05-15T06:18:23.275Z,25.05
2023-05-15T06:19:23.202Z,25.05
2023-05-15T06:20:23.274Z,25.08
2023-05-15T06:21:23.173Z,25.08
2023-05-15T06:22:23.184Z,25.11
2023-05-15T06:23:24.382Z,25.10
2023-05-15T06:24:23.258Z,25.10
2023-05-15T06:25:23.196Z,25.12
2023-05-15T06:26:23.150Z,25.15
2023-05-15T06:27:23.146Z,25.15
2023-05-15T06:28:23.169Z,25.17
2023-05-15T06:29:23.214Z,25.17
2023-05-15T06:30:23.338Z,25.22
2023-05-15T06:31:23.219Z,25.18
2023-05-15T06:32:23.144Z,25.21
2023-05-15T06:33:23.118Z,25.21
2023-05-15T06:34:23.138Z,25.26
2023-05-15T06:35:23.137Z,25.28
2023-05-15T06:36:23.175Z,25.29
2023-05-15T06:37:23.668Z,25.32
2023-05-15T06:38:23.251Z,25.34
2023-05-15T06:39:23.323Z,25.35
2023-05-15T06:40:23.654Z,25.36
2023-05-15T06:41:23.421Z,25.34
2023-05-15T06:42:23.475Z,25.36
2023-05-15T06:43:23.540Z,25.38
2023-05-15T06:44:23.687Z,25.39
2023-05-15T06:45:23.779Z,25.41
2023-05-15T06:46:23.753Z,25.41
2023-05-15T06:47:23.842Z,25.41
2023-05-15T06:48:23.834Z,25.42
2023-05-15T06:49:23.902Z,25.42
2023-05-15T06:50:24.041Z,25.41
2023-05-15T06:51:24.023Z,25.42
2023-05-15T06:52:24.086Z,25.44
2023-05-15T06:53:24.134Z,25.42
2023-05-15T06:54:24.216Z,25.41
2023-05-15T06:55:24.366Z,25.41
2023-05-15T06:56:24.373Z,25.42
2023-05-15T06:57:24.405Z,25.44
2023-05-15T06:58:24.460Z,25.45
2023-05-15T06:59:24.519Z,25.45
2023-05-15T07:02:24.762Z,25.50
2023-05-15T07:03:24.735Z,25.49
2023-05-15T07:04:24.826Z,25.50
2023-05-15T07:05:25.008Z,25.50
2023-05-15T07:06:24.990Z,25.52
2023-05-15T07:07:24.968Z,25.52
2023-05-15T07:08:24.998Z,25.58
2023-05-15T07:09:25.064Z,25.53
2023-05-15T07:10:25.423Z,25.56
2023-05-15T07:11:25.142Z,25.58
2023-05-15T07:12:25.192Z,25.59
2023-05-15T07:13:25.231Z,25.61
2023-05-15T07:14:25.316Z,25.59
2023-05-15T07:15:25.322Z,25.59
2023-05-15T07:16:25.363Z,25.64
2023-05-15T07:17:25.463Z,25.66
2023-05-15T07:18:25.511Z,25.64
2023-05-15T07:19:25.516Z,25.68
2023-05-15T07:20:28.233Z,25.68
2023-05-15T07:21:25.543Z,25.68
2023-05-15T07:22:25.707Z,25.69
2023-05-15T07:23:25.504Z,25.68
2023-05-15T07:24:25.497Z,25.72
2023-05-15T07:25:26.025Z,25.73
2023-05-15T07:26:32.879Z,25.75
2023-05-15T07:27:26.511Z,25.78
2023-05-15T07:28:25.527Z,25.79
2023-05-15T07:29:25.471Z,25.76
2023-05-15T07:30:25.622Z,25.79
2023-05-15T07:31:25.571Z,25.80
2023-05-15T07:32:25.464Z,25.83
2023-05-15T07:33:25.450Z,25.86
2023-05-15T07:34:25.433Z,25.85
2023-05-15T07:35:25.576Z,25.88
2023-05-15T07:36:25.415Z,25.89
2023-05-15T07:37:25.418Z,25.92
2023-05-15T07:38:25.430Z,25.93
2023-05-15T07:39:25.480Z,25.95
2023-05-15T07:40:25.439Z,25.95
2023-05-15T07:41:25.385Z,25.96
2023-05-15T07:42:25.403Z,25.95
2023-05-15T07:43:25.389Z,25.97
2023-05-15T07:44:25.435Z,25.97
2023-05-15T07:45:25.530Z,25.99
2023-05-15T07:46:25.443Z,26.02
2023-05-15T07:47:25.537Z,25.97
2023-05-15T07:48:25.463Z,26.03
2023-05-15T07:49:25.482Z,26.12
2023-05-15T07:50:25.502Z,26.13
2023-05-15T07:51:25.575Z,26.17
2023-05-15T07:52:25.649Z,26.19
2023-05-15T07:53:25.571Z,26.23
2023-05-15T07:54:25.630Z,26.26
2023-05-15T07:55:25.886Z,26.29
2023-05-15T07:56:25.649Z,26.36
2023-05-15T07:57:25.727Z,26.39
2023-05-15T07:58:25.670Z,26.43
2023-05-15T07:59:25.773Z,26.44
2023-05-15T08:00:25.675Z,26.50
2023-05-15T08:01:25.687Z,26.53
2023-05-15T08:02:25.850Z,26.53
2023-05-15T08:03:25.789Z,26.54
2023-05-15T08:04:25.750Z,26.57
2023-05-15T08:05:25.971Z,26.58
2023-05-15T08:06:25.767Z,26.63
2023-05-15T08:07:25.707Z,26.64
2023-05-15T08:08:25.697Z,26.67
2023-05-15T08:09:25.717Z,26.71
2023-05-15T08:10:25.884Z,26.74
2023-05-15T08:11:25.800Z,26.80
2023-05-15T08:12:25.911Z,26.80
2023-05-15T08:13:25.902Z,26.84
2023-05-15T08:14:26.074Z,26.84
2023-05-15T08:15:26.251Z,26.86
2023-05-15T08:16:26.162Z,26.87
2023-05-15T08:17:26.231Z,26.88
2023-05-15T08:18:26.270Z,26.93
2023-05-15T08:19:26.356Z,26.91
2023-05-15T08:20:26.337Z,26.91
2023-05-15T08:21:26.396Z,26.93
2023-05-15T08:22:26.491Z,26.90
2023-05-15T08:23:26.552Z,26.95
2023-05-15T08:24:26.564Z,26.95
2023-05-15T08:25:26.994Z,26.94
2023-05-15T08:26:26.740Z,26.95
2023-05-15T08:27:27.230Z,26.93
2023-05-15T08:28:26.856Z,26.88
2023-05-15T08:29:26.860Z,26.83
2023-05-15T08:30:26.874Z,26.78
2023-05-15T08:31:26.897Z,26.71
2023-05-15T08:32:27.317Z,26.67
2023-05-15T08:33:26.863Z,26.63
2023-05-15T08:34:26.853Z,26.63
2023-05-15T08:35:27.073Z,26.56
2023-05-15T08:36:26.992Z,26.53
2023-05-15T08:37:26.916Z,26.44
2023-05-15T08:38:26.927Z,26.43
2023-05-15T08:39:26.955Z,26.40
2023-05-15T08:41:39.499Z,26.34
2023-05-15T08:42:27.994Z,26.33
2023-05-15T08:43:28.226Z,26.27
2023-05-15T08:44:26.960Z,26.23
2023-05-15T08:45:27.145Z,26.24
2023-05-15T08:46:26.981Z,26.27
2023-05-15T08:47:26.975Z,26.32
2023-05-15T08:48:27.051Z,26.33
2023-05-15T08:49:26.925Z,26.33
2023-05-15T08:50:26.924Z,26.39
2023-05-15T08:51:26.953Z,26.40
2023-05-15T08:52:26.977Z,26.44
2023-05-15T08:53:26.901Z,26.47
2023-05-15T08:54:26.901Z,26.48
2023-05-15T08:55:27.141Z,26.53
2023-05-15T08:56:26.882Z,26.56
2023-05-15T08:57:26.867Z,26.58
2023-05-15T08:58:26.870Z,26.58
2023-05-15T08:59:26.871Z,26.61
2023-05-15T09:00:26.862Z,26.63
2023-05-15T09:01:26.867Z,26.68
2023-05-15T09:02:26.865Z,26.68
2023-05-15T09:03:26.984Z,26.70
2023-05-15T09:04:26.861Z,26.71
2023-05-15T09:05:27.138Z,26.74
2023-05-15T09:06:26.978Z,26.80
2023-05-15T09:07:27.123Z,26.81
2023-05-15T09:08:27.118Z,26.83
2023-05-15T09:09:27.162Z,26.86
2023-05-15T09:10:27.203Z,26.84
2023-05-15T09:11:27.276Z,26.90
2023-05-15T09:12:27.305Z,26.93
2023-05-15T09:13:27.371Z,26.93
2023-05-15T09:14:27.390Z,26.97
2023-05-15T09:15:27.580Z,26.98
2023-05-15T09:16:27.512Z,27.00
2023-05-15T09:17:27.531Z,27.00
2023-05-15T09:18:27.627Z,27.05
2023-05-15T09:19:27.581Z,27.08
2023-05-15T09:20:27.616Z,27.07
2023-05-15T09:21:27.788Z,27.07
2023-05-15T09:22:27.691Z,27.05
2023-05-15T09:23:27.843Z,27.07
2023-05-15T09:24:27.741Z,27.10
2023-05-15T09:25:27.906Z,27.10
2023-05-15T09:26:27.796Z,27.11
2023-05-15T09:27:27.896Z,27.12
2023-05-15T09:28:27.972Z,27.11
2023-05-15T09:29:27.916Z,27.11
2023-05-15T09:30:27.938Z,27.11
2023-05-15T09:31:28.059Z,27.07
2023-05-15T09:32:28.008Z,27.07
2023-05-15T09:33:28.249Z,27.05
2023-05-15T09:34:28.138Z,27.02
2023-05-15T09:35:28.718Z,26.95
2023-05-15T09:36:28.185Z,26.88
2023-05-15T09:37:28.231Z,26.84
2023-05-15T09:38:28.223Z,26.71
2023-05-15T09:39:28.229Z,26.67
2023-05-15T09:40:28.230Z,26.58
2023-05-15T09:41:28.275Z,26.50
2023-05-15T09:42:28.303Z,26.37
2023-05-15T09:43:28.348Z,26.29
2023-05-15T09:44:28.416Z,26.12
2023-05-15T09:45:28.548Z,26.02
2023-05-15T09:46:28.583Z,25.93
2023-05-15T09:47:28.851Z,25.69
2023-05-15T09:48:28.646Z,25.65
2023-05-15T09:49:28.612Z,25.44
2023-05-15T09:50:28.636Z,25.41
2023-05-15T09:51:28.640Z,25.35
2023-05-15T09:52:28.629Z,25.31
2023-05-15T09:53:28.755Z,25.29
2023-05-15T09:54:28.600Z,25.19
2023-05-15T09:55:28.624Z,25.14
2023-05-15T09:56:28.615Z,24.98
2023-05-15T09:57:28.659Z,24.87
2023-05-15T09:58:28.681Z,24.82
2023-05-15T09:59:28.698Z,24.80
2023-05-15T10:00:29.847Z,24.80
2023-05-15T10:01:28.750Z,24.70
2023-05-15T10:02:28.742Z,24.64
2023-05-15T10:03:28.712Z,24.68
2023-05-15T10:04:28.707Z,24.64
2023-05-15T10:05:41.943Z,24.68
2023-05-15T10:06:29.678Z,24.67
2023-05-15T10:07:28.676Z,24.68
2023-05-15T10:08:28.674Z,24.68
2023-05-15T10:09:28.663Z,24.70
2023-05-15T10:10:28.700Z,24.70
2023-05-15T10:11:28.652Z,24.70
2023-05-15T10:12:28.658Z,24.74
2023-05-15T10:13:28.694Z,24.75
2023-05-15T10:14:28.696Z,24.72
2023-05-15T10:15:28.751Z,24.71
2023-05-15T10:16:28.825Z,24.70
2023-05-15T10:17:28.881Z,24.70
2023-05-15T10:18:29.061Z,24.74
2023-05-15T10:19:28.996Z,24.71
2023-05-15T10:20:29.037Z,24.74
2023-05-15T10:21:29.086Z,24.74
2023-05-15T10:22:29.160Z,24.74
2023-05-15T10:23:29.296Z,24.74
2023-05-15T10:24:29.258Z,24.54
2023-05-15T10:25:29.323Z,24.60
2023-05-15T10:26:29.364Z,24.61
2023-05-15T10:27:29.404Z,24.58
2023-05-15T10:28:29.783Z,24.30
2023-05-15T10:29:29.460Z,24.36
2023-05-15T10:30:29.479Z,24.41
2023-05-15T10:31:29.580Z,24.41
2023-05-15T10:32:29.568Z,24.46
2023-05-15T10:33:29.612Z,24.46
2023-05-15T10:34:29.647Z,24.48
2023-05-15T10:35:29.706Z,24.48
2023-05-15T10:36:29.807Z,24.51
2023-05-15T10:37:29.777Z,24.54
2023-05-15T10:38:29.815Z,24.54
2023-05-15T10:39:29.889Z,24.57
2023-05-15T10:40:29.862Z,24.57
2023-05-15T10:41:29.968Z,24.57
2023-05-15T10:42:29.971Z,24.58
2023-05-15T10:43:30.055Z,24.60
2023-05-15T10:44:30.032Z,24.58
2023-05-15T10:45:30.063Z,24.57
2023-05-15T10:46:30.176Z,24.57
2023-05-15T10:47:30.229Z,24.54
2023-05-15T10:48:30.263Z,24.57
2023-05-15T10:49:30.265Z,24.54
2023-05-15T10:50:30.320Z,24.56
2023-05-15T10:51:30.433Z,24.56
2023-05-15T10:52:30.388Z,24.57
2023-05-15T10:53:30.457Z,24.57
2023-05-15T10:54:30.491Z,24.56
2023-05-15T10:55:30.499Z,24.57
2023-05-15T10:56:30.776Z,24.60
2023-05-15T10:57:30.590Z,24.37
2023-05-15T10:58:30.592Z,24.30
2023-05-15T10:59:30.633Z,24.26
2023-05-15T11:00:30.682Z,24.21
2023-05-15T11:01:30.805Z,24.16
2023-05-15T11:02:30.766Z,24.10
2023-05-15T11:03:41.167Z,24.10
2023-05-15T11:04:31.806Z,24.14
2023-05-15T11:05:30.728Z,24.12
2023-05-15T11:06:30.716Z,24.13
2023-05-15T11:07:30.703Z,24.19
2023-05-15T11:08:30.746Z,24.20
2023-05-15T11:09:30.732Z,24.26
2023-05-15T11:10:30.683Z,24.28
2023-05-15T11:11:30.691Z,24.34
2023-05-15T11:12:30.674Z,24.37
2023-05-15T11:13:30.734Z,24.36
2023-05-15T11:14:30.834Z,24.43
2023-05-15T11:15:30.804Z,24.46
2023-05-15T11:16:30.874Z,24.44
2023-05-15T11:17:30.960Z,24.48
2023-05-15T11:18:31.038Z,24.51
2023-05-15T11:19:31.006Z,24.51
2023-05-15T11:20:31.050Z,24.53
2023-05-15T11:21:31.111Z,24.56
2023-05-15T11:22:31.138Z,24.56
2023-05-15T11:23:31.284Z,24.60
2023-05-15T11:24:31.304Z,24.57
2023-05-15T11:25:31.296Z,24.60
2023-05-15T11:26:31.305Z,24.60
2023-05-15T11:27:31.358Z,24.63
2023-05-15T11:28:31.731Z,24.63
2023-05-15T11:29:31.809Z,24.64
2023-05-15T11:30:31.446Z,24.63
2023-05-15T11:31:31.497Z,24.64
2023-05-15T11:32:31.523Z,24.63
2023-05-15T11:33:31.552Z,24.61
2023-05-15T11:34:31.565Z,24.63
2023-05-15T11:35:31.571Z,24.61
2023-05-15T11:36:31.601Z,24.60
2023-05-15T11:37:31.623Z,24.58
2023-05-15T11:38:31.685Z,24.47
2023-05-15T11:39:31.698Z,24.50
2023-05-15T11:40:31.745Z,24.48
2023-05-15T11:41:31.804Z,24.47
2023-05-15T11:42:31.814Z,24.46
2023-05-15T11:43:31.999Z,24.47
2023-05-15T11:44:31.961Z,24.47
2023-05-15T11:45:31.965Z,24.47
2023-05-15T11:46:32.084Z,24.48
2023-05-15T11:47:32.134Z,24.50
2023-05-15T11:48:32.138Z,24.48
2023-05-15T11:49:32.153Z,24.50
2023-05-15T11:50:32.210Z,24.46
2023-05-15T11:51:32.256Z,24.31
2023-05-15T11:52:32.318Z,24.33
2023-05-15T11:53:32.405Z,24.30
2023-05-15T11:54:32.420Z,24.27
2023-05-15T11:55:32.472Z,24.31
2023-05-15T11:56:32.535Z,24.31
2023-05-15T11:57:32.596Z,24.30
2023-05-15T11:58:32.686Z,24.31
2023-05-15T11:59:32.705Z,24.36
2023-05-15T12:00:32.749Z,24.34
2023-05-15T12:01:32.811Z,24.37
2023-05-15T12:02:32.899Z,24.34
2023-05-15T12:03:33.020Z,24.36
2023-05-15T12:04:33.011Z,24.38
2023-05-15T12:05:33.014Z,24.36
2023-05-15T12:06:33.068Z,24.34
2023-05-15T12:07:33.131Z,24.37
2023-05-15T12:08:33.205Z,24.37
2023-05-15T12:09:33.234Z,24.36
2023-05-15T12:10:33.316Z,24.37
2023-05-15T12:11:33.331Z,24.36
2023-05-15T12:12:33.406Z,24.37
2023-05-15T12:13:33.481Z,24.36
2023-05-15T12:14:33.492Z,24.36
2023-05-15T12:15:33.515Z,24.36
2023-05-15T12:16:33.661Z,24.41
2023-05-15T12:17:33.683Z,24.37
2023-05-15T12:18:33.750Z,24.33
2023-05-15T12:19:33.741Z,24.37
2023-05-15T12:20:33.807Z,24.26
2023-05-15T12:21:34.787Z,24.24
2023-05-15T12:22:34.041Z,24.17
2023-05-15T12:23:34.078Z,24.19
2023-05-15T12:24:34.076Z,24.16
2023-05-15T12:25:34.089Z,24.19
2023-05-15T12:26:34.138Z,24.19
2023-05-15T12:27:34.184Z,24.21
2023-05-15T12:28:34.258Z,24.23
2023-05-15T12:29:34.305Z,24.26
2023-05-15T12:30:34.360Z,24.28
2023-05-15T12:31:34.467Z,24.31
2023-05-15T12:32:34.510Z,24.28
2023-05-15T12:33:34.526Z,24.30
2023-05-15T12:34:34.538Z,24.27
2023-05-15T12:35:34.552Z,24.23
2023-05-15T12:36:34.519Z,24.24
2023-05-15T12:37:34.514Z,24.26
2023-05-15T12:38:34.516Z,24.27
2023-05-15T12:39:34.561Z,24.27
2023-05-15T12:40:34.581Z,24.27
2023-05-15T12:41:34.640Z,24.27
2023-05-15T12:42:34.681Z,24.31
2023-05-15T12:43:34.763Z,24.37
2023-05-15T12:44:34.813Z,24.36
2023-05-15T12:45:34.866Z,24.40
2023-05-15T12:46:35.064Z,24.41
2023-05-15T12:47:35.006Z,24.44
2023-05-15T12:48:35.044Z,24.44
2023-05-15T12:49:35.104Z,24.44
2023-05-15T12:50:35.135Z,24.46
2023-05-15T12:51:35.204Z,24.44
2023-05-15T12:52:35.231Z,24.47
2023-05-15T12:53:35.285Z,24.50
2023-05-15T12:54:35.327Z,24.47
2023-05-15T12:55:35.385Z,24.51
2023-05-15T12:56:35.423Z,24.51